Time;durP1;ratioP1;P1;durP2;ratioP2;P2;SDS_P1;SDS_P2;PMS_P1;PMS_P2;Temp;Humidity;BMP_temperature;BMP_pressure;BME280_temperature;BME280_humidity;BME280_pressure;Samples;Min_cycle;Max_cycle;Signal;HPM_P1;HPM_P2
2022/05/28 04:01:33;;;;;;;2.80;1.50;;;8.70;99.90;;;;;;5419618;23;20267;-71
2022/05/28 04:04:00;;;;;;;4.85;1.88;;;8.60;99.90;;;;;;4959910;28;20215;-70
2022/05/28 04:06:27;;;;;;;1.88;1.17;;;8.60;99.90;;;;;;4958640;28;20209;-71
2022/05/28 04:08:54;;;;;;;1.75;1.30;;;8.60;99.90;;;;;;4960770;28;20253;-71
2022/05/28 04:11:20;;;;;;;3.67;1.83;;;8.60;99.90;;;;;;4939597;28;20370;-71
2022/05/28 04:13:48;;;;;;;1.10;1.10;;;8.60;99.90;;;;;;4943652;29;20595;-72
2022/05/28 04:16:15;;;;;;;2.80;1.40;;;8.60;99.90;;;;;;4963583;23;20238;-70
2022/05/28 04:18:44;;;;;;;3.22;1.58;;;8.70;99.90;;;;;;4934596;29;20646;-70
2022/05/28 04:21:11;;;;;;;1.75;1.20;;;8.70;99.90;;;;;;4940180;29;20364;-70
2022/05/28 04:23:38;;;;;;;2.35;1.85;;;8.70;99.90;;;;;;4940458;28;20281;-70
2022/05/28 04:26:04;;;;;;;5.05;1.60;;;8.90;99.90;;;;;;4940395;29;20350;-70
2022/05/28 04:28:31;;;;;;;6.32;2.00;;;9.40;99.90;;;;;;4936441;28;20206;-69
2022/05/28 04:30:58;;;;;;;3.28;1.80;;;9.80;99.90;;;;;;4928968;29;20578;-69
2022/05/28 04:33:25;;;;;;;1.90;1.80;;;10.30;99.90;;;;;;4940583;28;20277;-70
2022/05/28 04:35:53;;;;;;;3.28;1.63;;;10.90;99.90;;;;;;4931726;29;20221;-70
2022/05/28 04:38:20;;;;;;;6.10;2.40;;;11.30;99.90;;;;;;4936274;29;20241;-70
2022/05/28 04:40:48;;;;;;;2.53;1.58;;;11.50;99.90;;;;;;4945953;29;20209;-70
2022/05/28 04:43:14;;;;;;;1.90;0.90;;;11.80;99.90;;;;;;4941899;28;20211;-70
2022/05/28 04:45:41;;;;;;;5.50;1.53;;;12.10;99.90;;;;;;4936883;28;20548;-70
2022/05/28 04:48:09;;;;;;;1.43;1.43;;;11.90;99.90;;;;;;4939632;29;20465;-70
2022/05/28 04:50:36;;;;;;;3.47;1.60;;;11.50;99.90;;;;;;4944424;28;20473;-70
2022/05/28 04:53:04;;;;;;;1.47;1.37;;;11.50;99.90;;;;;;4941136;28;20519;-70
2022/05/28 04:55:31;;;;;;;4.53;1.47;;;11.60;99.90;;;;;;4933706;28;20482;-70
2022/05/28 04:57:58;;;;;;;2.30;1.40;;;11.30;99.90;;;;;;4932969;29;20493;-70
2022/05/28 05:00:27;;;;;;;2.28;1.35;;;10.90;99.90;;;;;;4937854;28;20465;-70
2022/05/28 05:02:54;;;;;;;3.92;1.50;;;10.60;99.90;;;;;;4941237;29;20257;-69
2022/05/28 05:05:21;;;;;;;2.90;1.40;;;10.40;99.90;;;;;;4941432;29;20205;-70
2022/05/28 05:07:48;;;;;;;1.67;1.58;;;10.20;99.90;;;;;;4941875;29;20290;-70
2022/05/28 05:10:16;;;;;;;5.50;1.75;;;10.20;99.90;;;;;;4943639;29;20289;-68
2022/05/28 05:12:42;;;;;;;1.48;1.40;;;10.10;99.90;;;;;;4945357;29;20268;-69
2022/05/28 05:15:10;;;;;;;3.33;1.25;;;10.40;99.90;;;;;;4934360;28;20210;-70
2022/05/28 05:17:37;;;;;;;3.40;2.00;;;10.90;99.90;;;;;;4944681;29;20234;-71
2022/05/28 05:20:04;;;;;;;1.67;1.45;;;10.80;99.90;;;;;;4944698;28;20333;-70
2022/05/28 05:22:31;;;;;;;2.33;1.65;;;10.70;99.90;;;;;;4935788;29;20210;-70
2022/05/28 05:24:58;;;;;;;2.08;1.30;;;10.90;99.90;;;;;;4936737;28;20260;-70
2022/05/28 05:27:26;;;;;;;1.40;1.30;;;11.20;99.90;;;;;;4942512;29;20292;-69
2022/05/28 05:29:57;;;;;;;2.15;1.42;;;11.60;99.90;;;;;;4952738;28;20223;-70
2022/05/28 05:32:23;;;;;;;1.37;1.03;;;12.20;99.90;;;;;;4941701;29;20710;-68
2022/05/28 05:34:50;;;;;;;1.50;1.40;;;13.00;99.90;;;;;;4933481;28;20530;-68
2022/05/28 05:37:17;;;;;;;2.67;1.40;;;13.30;99.90;;;;;;4942300;29;20983;-69
2022/05/28 05:39:44;;;;;;;1.60;1.50;;;13.50;99.90;;;;;;4938111;29;20478;-69
2022/05/28 05:42:11;;;;;;;1.97;1.80;;;13.90;99.90;;;;;;4950253;29;20472;-70
2022/05/28 05:44:39;;;;;;;1.90;1.40;;;14.20;99.90;;;;;;4944806;28;21797;-68
2022/05/28 05:47:07;;;;;;;5.43;1.70;;;14.30;99.90;;;;;;4943230;29;20485;-68
2022/05/28 05:49:34;;;;;;;3.07;1.50;;;14.40;99.90;;;;;;4945606;28;20973;-68
2022/05/28 05:52:01;;;;;;;2.73;1.40;;;14.60;99.90;;;;;;4946525;29;20468;-70
2022/05/28 05:54:28;;;;;;;3.00;1.60;;;15.00;99.90;;;;;;4947205;28;20476;-68
2022/05/28 05:56:55;;;;;;;2.20;1.30;;;15.20;99.90;;;;;;4940907;29;20489;-67
2022/05/28 05:59:22;;;;;;;3.10;1.33;;;15.30;99.90;;;;;;4938657;29;20493;-69
2022/05/28 06:01:50;;;;;;;1.20;1.13;;;15.50;99.90;;;;;;4930546;28;20485;-69
2022/05/28 06:04:17;;;;;;;4.27;1.90;;;16.00;99.90;;;;;;4940139;29;20461;-68
2022/05/28 06:06:43;;;;;;;1.57;1.47;;;15.70;99.90;;;;;;4942728;28;20489;-68
2022/05/28 06:09:10;;;;;;;1.83;1.00;;;15.60;99.90;;;;;;4940824;29;20503;-68
2022/05/28 06:11:37;;;;;;;2.07;1.87;;;16.10;99.90;;;;;;4945526;29;20474;-68
2022/05/28 06:14:04;;;;;;;5.17;2.60;;;16.20;99.90;;;;;;4944570;28;20841;-68
2022/05/28 06:16:31;;;;;;;5.03;2.07;;;16.60;99.90;;;;;;4934078;28;20520;-68
2022/05/28 06:18:59;;;;;;;4.80;2.03;;;16.70;99.90;;;;;;4939673;28;20493;-68
2022/05/28 06:21:26;;;;;;;6.10;1.87;;;16.50;99.90;;;;;;4939476;29;21029;-68
2022/05/28 06:23:53;;;;;;;3.70;2.03;;;16.30;99.90;;;;;;4946197;28;20465;-68
2022/05/28 06:26:20;;;;;;;4.95;2.28;;;16.10;99.90;;;;;;4939484;28;20810;-69
2022/05/28 06:28:47;;;;;;;10.63;3.23;;;15.50;99.90;;;;;;4952585;28;20279;-68
2022/05/28 06:31:16;;;;;;;2.97;2.43;;;14.80;99.90;;;;;;4917214;28;20470;-69
2022/05/28 06:33:43;;;;;;;5.97;2.73;;;14.40;99.90;;;;;;4917290;29;20465;-67
2022/05/28 06:36:13;;;;;;;2.10;1.93;;;14.20;99.90;;;;;;4929540;29;20612;-67
2022/05/28 06:38:40;;;;;;;15.37;2.90;;;13.90;99.90;;;;;;4943452;28;20484;-68
2022/05/28 06:41:07;;;;;;;6.13;2.23;;;13.60;99.90;;;;;;4941527;28;20477;-68
2022/05/28 06:43:34;;;;;;;4.40;3.03;;;14.00;99.90;;;;;;4944649;28;20537;-68
2022/05/28 06:46:02;;;;;;;3.90;2.00;;;14.50;99.90;;;;;;4940845;28;20492;-68
2022/05/28 06:48:29;;;;;;;9.87;2.00;;;14.50;99.90;;;;;;4931522;29;20475;-71
2022/05/28 06:51:04;;;;;;;3.77;2.37;;;14.80;99.90;;;;;;4941612;28;20462;-70
2022/05/28 06:53:36;;;;;;;6.27;1.97;;;15.50;99.90;;;;;;4936288;29;20575;-68
2022/05/28 06:56:02;;;;;;;1.80;1.70;;;16.30;99.90;;;;;;4936574;29;20548;-67
2022/05/28 06:58:29;;;;;;;2.40;1.73;;;17.00;99.90;;;;;;4936336;29;20481;-68
2022/05/28 07:00:56;;;;;;;5.20;1.80;;;17.40;99.90;;;;;;4936205;29;20498;-68
2022/05/28 07:03:25;;;;;;;3.17;1.87;;;17.90;99.90;;;;;;4935609;29;20465;-68
2022/05/28 07:05:52;;;;;;;2.20;1.73;;;18.20;99.90;;;;;;4939665;28;20489;-68
2022/05/28 07:08:19;;;;;;;2.57;1.70;;;18.10;99.90;;;;;;4948189;29;20469;-68
2022/05/28 07:10:49;;;;;;;3.90;2.00;;;18.40;99.90;;;;;;4946775;28;20968;-68
2022/05/28 07:13:17;;;;;;;3.57;1.90;;;17.90;99.90;;;;;;4940328;28;20473;-69
2022/05/28 07:15:44;;;;;;;6.80;2.40;;;17.30;99.90;;;;;;4939642;29;20552;-69
2022/05/28 07:18:11;;;;;;;5.73;2.90;;;16.40;99.90;;;;;;4939972;29;20495;-68
2022/05/28 07:20:38;;;;;;;4.20;1.90;;;16.10;99.90;;;;;;4938291;29;20480;-67
2022/05/28 07:23:11;;;;;;;4.73;2.07;;;16.10;99.90;;;;;;4941119;28;20612;-69
2022/05/28 07:25:38;;;;;;;3.63;1.90;;;16.80;99.90;;;;;;4924026;29;20497;-69
2022/05/28 07:30:48;;;;;;;18.90;2.30;;;16.70;99.90;;;;;;4934725;29;20457;-68
2022/05/28 07:33:15;;;;;;;4.77;1.83;;;15.90;99.90;;;;;;4934908;28;20474;-68
2022/05/28 07:35:42;;;;;;;5.60;2.47;;;15.60;99.90;;;;;;4935514;29;20485;-69
2022/05/28 07:38:08;;;;;;;2.63;1.83;;;15.20;99.90;;;;;;4940076;29;20488;-69
2022/05/28 07:40:35;;;;;;;3.63;1.90;;;14.60;99.90;;;;;;4940618;28;20934;-69
2022/05/28 07:43:02;;;;;;;1.43;1.33;;;15.10;99.90;;;;;;4938811;29;20525;-69
2022/05/28 07:45:30;;;;;;;1.77;1.23;;;15.90;99.90;;;;;;4944131;29;20532;-69
2022/05/28 07:47:57;;;;;;;3.50;1.83;;;16.50;99.90;;;;;;4931346;29;20465;-69
2022/05/28 07:50:23;;;;;;;6.37;2.13;;;16.80;99.90;;;;;;4930367;29;20533;-69
2022/05/28 07:52:50;;;;;;;3.77;1.40;;;17.20;99.90;;;;;;4931770;29;20508;-69
2022/05/28 07:55:17;;;;;;;3.80;1.83;;;17.50;99.90;;;;;;4934209;29;20473;-69
2022/05/28 07:57:43;;;;;;;4.30;2.40;;;17.80;99.90;;;;;;4928943;29;20874;-69
2022/05/28 08:00:11;;;;;;;2.10;1.43;;;18.30;99.90;;;;;;4935191;29;20498;-69
2022/05/28 08:02:39;;;;;;;3.07;2.47;;;17.70;99.90;;;;;;4935584;29;20481;-69
2022/05/28 08:05:06;;;;;;;7.63;2.03;;;16.80;99.90;;;;;;4938841;29;20473;-68
2022/05/28 08:07:33;;;;;;;2.73;1.67;;;16.00;99.90;;;;;;4937137;28;20466;-69
2022/05/28 08:10:00;;;;;;;4.87;1.63;;;15.40;99.90;;;;;;4941947;28;20468;-69
2022/05/28 08:12:26;;;;;;;5.13;1.60;;;15.00;99.90;;;;;;4929737;29;20474;-69
2022/05/28 08:14:53;;;;;;;2.93;1.80;;;14.60;99.90;;;;;;4941152;28;20652;-70
2022/05/28 08:17:20;;;;;;;3.63;1.90;;;13.90;99.90;;;;;;4934057;29;20505;-69
2022/05/28 08:19:48;;;;;;;2.73;1.40;;;13.50;99.90;;;;;;4936517;29;20668;-68
2022/05/28 08:24:59;;;;;;;4.43;1.57;;;13.30;99.90;;;;;;4934382;29;20457;-69
2022/05/28 08:27:26;;;;;;;3.23;1.80;;;13.70;99.90;;;;;;4939237;29;21039;-68
2022/05/28 08:29:52;;;;;;;5.60;1.70;;;14.10;99.90;;;;;;4933723;29;20524;-68
2022/05/28 08:32:19;;;;;;;3.87;1.93;;;14.50;99.90;;;;;;4934033;29;20533;-70
2022/05/28 08:34:47;;;;;;;5.80;2.03;;;14.60;99.90;;;;;;4940604;28;20472;-69
2022/05/28 08:37:14;;;;;;;2.47;2.00;;;14.30;99.90;;;;;;4939274;28;21073;-69
2022/05/28 08:39:40;;;;;;;3.63;1.93;;;13.90;99.90;;;;;;4943809;29;20489;-69
2022/05/28 08:42:12;;;;;;;2.90;2.67;;;13.50;99.90;;;;;;4945039;28;20480;-69
2022/05/28 08:44:41;;;;;;;9.33;1.93;;;13.30;99.90;;;;;;4936813;28;20644;-68
2022/05/28 08:47:15;;;;;;;3.53;2.30;;;13.00;99.90;;;;;;4931160;29;21374;-69
2022/05/28 08:49:43;;;;;;;4.25;2.35;;;12.80;99.90;;;;;;4928913;29;20918;-68
2022/05/28 08:52:14;;;;;;;3.73;1.63;;;12.90;99.90;;;;;;4930551;29;20201;-69
2022/05/28 08:54:56;;;;;;;2.97;2.00;;;13.20;99.90;;;;;;4938791;29;20578;-69
2022/05/28 08:57:29;;;;;;;2.67;1.90;;;13.30;99.90;;;;;;4939172;28;20489;-68
2022/05/28 09:00:00;;;;;;;3.03;1.80;;;13.30;99.90;;;;;;4934986;29;20485;-69
2022/05/28 09:02:36;;;;;;;2.43;2.20;;;13.50;99.90;;;;;;4932092;29;20561;-69
2022/05/28 09:05:06;;;;;;;2.93;1.67;;;13.70;99.90;;;;;;4934160;28;20501;-68
2022/05/28 09:07:35;;;;;;;4.23;2.10;;;13.90;99.90;;;;;;4938374;29;20470;-68
2022/05/28 09:10:02;;;;;;;3.13;2.83;;;14.10;99.90;;;;;;4940992;29;20470;-68
2022/05/28 09:12:31;;;;;;;7.30;2.57;;;14.10;99.90;;;;;;4938023;29;20524;-68
2022/05/28 09:14:58;;;;;;;13.60;3.17;;;14.20;99.90;;;;;;4935027;29;20823;-69
2022/05/28 09:17:28;;;;;;;2.83;1.87;;;14.30;99.90;;;;;;4933739;29;20497;-68
2022/05/28 09:19:58;;;;;;;6.37;2.80;;;14.30;99.90;;;;;;4934203;28;20839;-68
2022/05/28 09:22:26;;;;;;;1.97;1.77;;;14.40;99.90;;;;;;4942953;29;20474;-69
2022/05/28 09:24:54;;;;;;;2.20;1.93;;;14.70;99.90;;;;;;4930650;28;20481;-68
2022/05/28 09:27:31;;;;;;;1.67;1.57;;;14.70;99.90;;;;;;4930161;29;20989;-69
2022/05/28 09:30:09;;;;;;;3.00;1.80;;;14.40;99.90;;;;;;4931183;29;20471;-68
2022/05/28 09:32:53;;;;;;;4.27;2.00;;;14.50;99.90;;;;;;4929963;29;20493;-69
2022/05/28 09:35:27;;;;;;;7.40;2.03;;;14.40;99.90;;;;;;4919213;29;20463;-68
2022/05/28 09:38:02;;;;;;;1.90;1.33;;;14.40;99.90;;;;;;4932031;29;20857;-69
2022/05/28 09:40:39;;;;;;;3.43;2.03;;;14.50;99.90;;;;;;4937956;28;20539;-69
2022/05/28 09:43:42;;;;;;;2.00;1.47;;;14.50;99.90;;;;;;4944160;28;20539;-69
2022/05/28 09:46:20;;;;;;;3.43;2.57;;;14.30;99.90;;;;;;4943704;28;20491;-69
2022/05/28 09:48:57;;;;;;;6.13;2.00;;;14.20;99.90;;;;;;4939627;28;20965;-69
2022/05/28 09:51:27;;;;;;;4.53;2.00;;;14.10;99.90;;;;;;4946675;29;20472;-68
2022/05/28 09:54:18;;;;;;;6.83;2.40;;;13.80;99.90;;;;;;4939983;28;20477;-68
2022/05/28 09:56:52;;;;;;;5.05;2.30;;;13.40;99.90;;;;;;4923868;29;20496;-69
2022/05/28 09:59:24;;;;;;;5.13;2.42;;;13.00;99.90;;;;;;4927672;29;20233;-69
2022/05/28 10:01:53;;;;;;;2.40;1.85;;;12.60;99.90;;;;;;4924620;29;20202;-69
2022/05/28 10:04:32;;;;;;;2.00;1.75;;;12.50;99.90;;;;;;4929593;29;20210;-69
2022/05/28 10:07:02;;;;;;;3.15;2.85;;;12.20;99.90;;;;;;4929670;29;20656;-69
2022/05/28 10:09:32;;;;;;;3.97;1.80;;;12.20;99.90;;;;;;4931683;29;20646;-70
2022/05/28 10:12:02;;;;;;;3.25;2.45;;;12.10;99.90;;;;;;4929934;29;20674;-69
2022/05/28 10:14:30;;;;;;;4.22;2.30;;;12.10;99.90;;;;;;4940352;29;20210;-69
2022/05/28 10:16:59;;;;;;;7.57;1.70;;;12.10;99.90;;;;;;4936700;29;20255;-68
2022/05/28 10:19:34;;;;;;;2.85;1.65;;;12.40;99.90;;;;;;4927624;29;20366;-70
2022/05/28 10:22:04;;;;;;;5.40;2.03;;;12.80;99.90;;;;;;4943808;29;20204;-69
2022/05/28 10:24:44;;;;;;;5.93;2.93;;;13.10;99.90;;;;;;4927382;28;20474;-69
2022/05/28 10:27:12;;;;;;;5.43;2.10;;;;;;;;;;4951854;23;20488;31
2022/05/28 10:29:50;;;;;;;3.30;2.93;;;13.30;99.90;;;;;;4907961;29;20994;-69
2022/05/28 10:32:28;;;;;;;4.23;2.80;;;13.60;99.90;;;;;;4913767;29;20522;-69
2022/05/28 10:35:01;;;;;;;3.73;2.20;;;13.70;99.90;;;;;;4913292;29;20542;-68
2022/05/28 10:37:27;;;;;;;5.37;3.90;;;13.70;99.90;;;;;;4913016;29;20936;-69
2022/05/28 10:40:06;;;;;;;4.70;2.17;;;13.80;99.90;;;;;;4906113;29;20487;-69
2022/05/28 10:42:32;;;;;;;2.63;2.07;;;14.00;99.90;;;;;;4896819;29;20463;-65
2022/05/28 10:45:01;;;;;;;4.40;2.27;;;14.10;99.90;;;;;;4899213;29;20971;-68
2022/05/28 10:47:41;;;;;;;3.73;2.47;;;14.10;99.90;;;;;;4913463;29;20467;-68
2022/05/28 10:50:16;;;;;;;8.00;2.30;;;14.20;99.90;;;;;;4911975;29;21262;-69
2022/05/28 10:52:59;;;;;;;3.70;1.80;;;14.40;99.90;;;;;;4903815;29;20972;-70
2022/05/28 10:55:35;;;;;;;2.73;1.53;;;14.50;99.90;;;;;;4895523;29;20516;-69
2022/05/28 10:58:19;;;;;;;4.20;2.23;;;14.40;99.90;;;;;;4905525;29;21389;-69
2022/05/28 11:00:58;;;;;;;5.40;1.57;;;14.20;99.90;;;;;;4894618;29;20480;-69
2022/05/28 11:04:05;;;;;;;2.10;1.77;;;14.30;99.90;;;;;;4904475;29;20470;-70
2022/05/28 11:07:02;;;;;;;1.80;1.40;;;14.10;99.90;;;;;;4913570;29;20529;-70
2022/05/28 11:09:38;;;;;;;2.87;1.40;;;14.10;99.90;;;;;;4903696;29;20825;-70
2022/05/28 11:12:20;;;;;;;2.80;1.10;;;14.10;99.90;;;;;;4896167;29;20475;-70
2022/05/28 11:15:12;;;;;;;3.50;1.47;;;14.20;99.90;;;;;;4894950;29;20839;-70
2022/05/28 11:18:03;;;;;;;6.33;1.33;;;14.30;99.90;;;;;;4894188;29;21008;-69
2022/05/28 11:20:39;;;;;;;1.60;1.30;;;14.30;99.90;;;;;;4905216;29;20603;-69
2022/05/28 11:23:21;;;;;;;3.87;1.70;;;14.50;99.90;;;;;;4895108;29;20928;-70
2022/05/28 11:26:09;;;;;;;7.37;1.30;;;14.80;99.90;;;;;;4912543;29;20462;-69
2022/05/28 11:28:54;;;;;;;1.30;1.30;;;14.80;99.90;;;;;;4916579;29;20777;-70
2022/05/28 11:31:30;;;;;;;2.40;1.00;;;14.90;99.90;;;;;;4907867;29;20470;-69
2022/05/28 11:34:04;;;;;;;3.87;1.47;;;15.00;99.90;;;;;;4916461;29;20512;-69
2022/05/28 11:36:37;;;;;;;3.10;1.50;;;15.20;99.90;;;;;;4928506;29;20513;-68
2022/05/28 11:39:07;;;;;;;4.23;1.87;;;15.30;99.90;;;;;;4916311;29;20621;-68
2022/05/28 11:41:41;;;;;;;6.90;1.83;;;15.40;99.90;;;;;;4916640;29;20470;-69
2022/05/28 11:44:14;;;;;;;6.90;2.23;;;15.60;99.90;;;;;;4916426;29;20904;-69
2022/05/28 11:46:46;;;;;;;4.47;1.37;;;15.50;99.90;;;;;;4916509;29;20470;-68
2022/05/28 11:52:12;;;;;;;4.90;1.70;;;15.40;99.90;;;;;;4910738;29;20469;-68
2022/05/28 11:54:43;;;;;;;2.40;1.10;;;15.40;99.90;;;;;;4916876;29;20462;-68
2022/05/28 11:57:20;;;;;;;1.20;1.10;;;15.20;99.90;;;;;;4907335;29;20832;-68
2022/05/28 11:59:48;;;;;;;2.10;1.20;;;15.10;99.90;;;;;;4902859;29;20856;-68
2022/05/28 12:02:21;;;;;;;1.10;1.07;;;14.90;99.90;;;;;;4909742;29;20471;-68
2022/05/28 12:04:49;;;;;;;1.17;1.17;;;14.80;99.90;;;;;;4898430;29;20503;-68
2022/05/28 12:07:31;;;;;;;4.30;0.93;;;14.70;99.90;;;;;;4915957;29;20474;-68
2022/05/28 12:09:58;;;;;;;3.30;1.50;;;14.70;99.90;;;;;;4900049;29;20462;-68
2022/05/28 12:12:33;;;;;;;3.43;1.93;;;14.70;99.90;;;;;;4916644;29;20463;-68
2022/05/28 12:15:24;;;;;;;3.60;1.13;;;14.70;99.90;;;;;;4918560;29;20982;-68
2022/05/28 12:17:59;;;;;;;3.17;2.03;;;15.00;99.90;;;;;;4919719;29;20494;-68
2022/05/28 12:20:33;;;;;;;3.57;1.60;;;15.40;99.90;;;;;;4909472;29;20615;-68
2022/05/28 12:23:03;;;;;;;2.37;1.83;;;15.60;99.90;;;;;;4908641;29;20542;-68
2022/05/28 12:25:37;;;;;;;3.00;1.37;;;15.70;99.90;;;;;;4908132;29;20503;-68
2022/05/28 12:28:12;;;;;;;4.00;1.57;;;15.60;99.90;;;;;;4912756;29;20577;-69
2022/05/28 12:30:49;;;;;;;5.17;1.20;;;15.70;99.90;;;;;;4912912;29;20470;-69
2022/05/28 12:33:27;;;;;;;3.07;1.77;;;15.60;99.90;;;;;;4912312;29;20476;-69
2022/05/28 12:36:04;;;;;;;2.43;1.60;;;15.50;99.90;;;;;;4914448;29;20477;-69
2022/05/28 12:38:47;;;;;;;2.73;1.60;;;15.60;99.90;;;;;;4915502;29;20649;-69
2022/05/28 12:41:24;;;;;;;2.63;1.77;;;15.70;99.90;;;;;;4905770;29;20549;-69
2022/05/28 12:43:57;;;;;;;3.93;2.93;;;15.70;99.90;;;;;;4904692;29;20831;-69
2022/05/28 12:46:44;;;;;;;8.00;2.50;;;15.60;99.90;;;;;;4912231;29;20812;-69
2022/05/28 12:49:20;;;;;;;3.40;1.90;;;15.70;99.90;;;;;;4914853;29;20486;-69
2022/05/28 12:52:20;;;;;;;4.00;1.47;;;15.70;99.90;;;;;;4903696;29;20475;-69
2022/05/28 12:54:48;;;;;;;6.23;1.40;;;15.50;99.90;;;;;;4910624;29;20517;-69
2022/05/28 12:57:29;;;;;;;4.80;1.70;;;15.50;99.90;;;;;;4905058;29;20475;-69
2022/05/28 13:00:01;;;;;;;4.83;1.93;;;15.40;99.90;;;;;;4907438;29;20490;-69
2022/05/28 13:02:33;;;;;;;4.43;1.60;;;15.30;99.90;;;;;;4913960;29;20474;-68
2022/05/28 13:05:09;;;;;;;4.70;2.40;;;15.20;99.90;;;;;;4912749;29;20545;-68
2022/05/28 13:07:44;;;;;;;5.33;2.23;;;15.20;99.90;;;;;;4914283;29;20490;-68
2022/05/28 13:10:16;;;;;;;2.73;2.10;;;15.30;99.90;;;;;;4906235;29;21026;-69
2022/05/28 13:12:50;;;;;;;2.13;1.50;;;15.10;99.90;;;;;;4917204;29;20478;-68
2022/05/28 13:16:00;;;;;;;4.40;2.10;;;15.10;99.90;;;;;;4926603;29;20453;-68
2022/05/28 13:18:56;;;;;;;3.00;2.23;;;15.10;99.90;;;;;;4906986;29;20903;-68
2022/05/28 13:21:54;;;;;;;5.17;1.83;;;15.00;99.90;;;;;;4908804;29;20913;-68
2022/05/28 13:24:53;;;;;;;3.23;1.43;;;14.90;99.90;;;;;;4911444;29;20474;-69
2022/05/28 13:27:31;;;;;;;7.00;2.13;;;14.80;99.90;;;;;;4906439;29;20534;-69
2022/05/28 13:30:09;;;;;;;5.63;2.30;;;14.90;99.90;;;;;;4919035;29;20520;-68
2022/05/28 13:32:43;;;;;;;7.47;1.77;;;14.90;99.90;;;;;;4919492;29;20484;-68
2022/05/28 13:35:13;;;;;;;5.47;2.33;;;14.90;99.90;;;;;;4909355;29;20581;-68
2022/05/28 13:37:41;;;;;;;8.87;2.47;;;14.90;99.90;;;;;;4911902;29;20500;-68
2022/05/28 13:40:20;;;;;;;3.43;1.80;;;14.80;99.90;;;;;;4908582;29;20553;-69
2022/05/28 13:42:48;;;;;;;2.17;1.13;;;14.90;99.90;;;;;;4903563;29;20513;-68
2022/05/28 13:45:22;;;;;;;8.40;2.07;;;14.90;99.90;;;;;;4918478;29;20537;-68
2022/05/28 13:47:49;;;;;;;3.47;1.30;;;14.90;99.90;;;;;;4909843;29;20482;-68
2022/05/28 13:50:16;;;;;;;2.97;1.90;;;14.80;99.90;;;;;;4902562;29;20501;-67
2022/05/28 13:52:45;;;;;;;4.60;1.60;;;14.70;99.90;;;;;;4911989;29;21090;-68
2022/05/28 13:55:22;;;;;;;5.70;1.93;;;14.50;99.90;;;;;;4911860;29;20474;-68
2022/05/28 13:57:49;;;;;;;5.27;1.97;;;14.30;99.90;;;;;;4909499;29;20486;-68
2022/05/28 14:00:20;;;;;;;5.20;1.70;;;14.20;99.90;;;;;;4912089;29;21023;-69
2022/05/28 14:02:54;;;;;;;3.83;1.77;;;14.20;99.90;;;;;;4912007;29;20873;-68
2022/05/28 14:05:33;;;;;;;3.37;1.70;;;14.30;99.90;;;;;;4912693;29;20521;-69
2022/05/28 14:08:04;;;;;;;2.20;1.90;;;14.50;99.90;;;;;;4913524;29;20530;-69
2022/05/28 14:10:38;;;;;;;5.10;1.50;;;14.60;99.90;;;;;;4907038;29;20460;-69
2022/05/28 14:13:05;;;;;;;3.10;1.33;;;14.60;99.90;;;;;;4908797;29;20474;-69
2022/05/28 14:15:32;;;;;;;3.60;1.50;;;14.40;99.90;;;;;;4911217;29;20482;-69
2022/05/28 14:18:00;;;;;;;2.70;1.80;;;14.10;99.90;;;;;;4908021;29;20497;-70
2022/05/28 14:20:31;;;;;;;1.63;1.50;;;14.00;99.90;;;;;;4905864;29;20486;-69
2022/05/28 14:22:58;;;;;;;2.25;1.40;;;13.90;99.90;;;;;;4909960;29;20462;-69
2022/05/28 14:25:29;;;;;;;5.30;2.00;;;13.90;99.90;;;;;;4918337;29;20549;-69
2022/05/28 14:28:01;;;;;;;8.23;1.97;;;14.20;99.90;;;;;;4910596;29;20509;-69
2022/05/28 14:30:32;;;;;;;6.50;1.60;;;14.40;99.90;;;;;;4906845;29;20473;-69
2022/05/28 14:32:59;;;;;;;6.70;1.90;;;14.70;99.90;;;;;;4904697;29;21044;-69
2022/05/28 14:35:40;;;;;;;3.33;1.97;;;14.80;99.90;;;;;;4905889;29;20467;-68
2022/05/28 14:38:08;;;;;;;2.93;2.73;;;14.90;99.90;;;;;;4904325;29;21018;-68
2022/05/28 14:40:37;;;;;;;3.10;1.33;;;14.90;99.90;;;;;;4908833;29;20909;-68
2022/05/28 14:43:07;;;;;;;4.43;2.10;;;14.80;99.90;;;;;;4912250;29;20501;-68
2022/05/28 14:45:35;;;;;;;3.13;1.50;;;14.80;99.90;;;;;;4912666;29;20901;-68
2022/05/28 14:48:06;;;;;;;3.00;1.23;;;14.60;99.90;;;;;;4914049;29;21059;-68
2022/05/28 14:50:38;;;;;;;2.40;1.50;;;14.40;99.90;;;;;;4910362;29;20471;-68
2022/05/28 14:53:06;;;;;;;2.87;1.73;;;14.30;99.90;;;;;;4912262;29;20914;-69
2022/05/28 14:55:35;;;;;;;6.27;1.97;;;14.10;99.90;;;;;;4913210;29;20466;-68
2022/05/28 14:58:06;;;;;;;3.77;1.60;;;14.10;99.90;;;;;;4911828;29;20530;-69
2022/05/28 15:00:36;;;;;;;4.13;1.80;;;14.10;99.90;;;;;;4910827;29;20483;-69
2022/05/28 15:03:11;;;;;;;6.13;1.93;;;14.20;99.90;;;;;;4916070;29;20466;-68
2022/05/28 15:05:38;;;;;;;3.53;1.53;;;14.30;99.90;;;;;;4917296;29;20517;-69
2022/05/28 15:08:07;;;;;;;2.87;2.27;;;14.30;99.90;;;;;;4907036;29;20490;-69
2022/05/28 15:10:41;;;;;;;2.60;1.80;;;14.50;99.90;;;;;;4913542;29;20517;-68
2022/05/28 15:13:14;;;;;;;4.00;1.80;;;14.60;99.90;;;;;;4916067;29;20469;-69
2022/05/28 15:15:41;;;;;;;10.10;2.07;;;14.90;99.90;;;;;;4911725;29;20474;-69
2022/05/28 15:18:08;;;;;;;5.53;1.90;;;15.20;99.90;;;;;;4915484;29;20550;-69
2022/05/28 15:20:36;;;;;;;3.50;2.20;;;15.40;99.90;;;;;;4909187;29;20483;-69
2022/05/28 15:23:03;;;;;;;4.73;1.70;;;15.50;99.90;;;;;;4917295;29;20470;-69
2022/05/28 15:25:29;;;;;;;5.00;1.70;;;15.30;99.90;;;;;;4916702;29;20462;-69
2022/05/28 15:27:56;;;;;;;2.83;1.30;;;15.20;99.90;;;;;;4914689;29;20562;-69
2022/05/28 15:30:25;;;;;;;2.07;1.17;;;15.20;99.90;;;;;;4918444;29;20470;-69
2022/05/28 15:32:52;;;;;;;7.10;1.50;;;15.20;99.90;;;;;;4908898;29;20621;-69
2022/05/28 15:37:51;;;;;;;4.10;2.00;;;15.30;99.90;;;;;;4910658;29;20864;-68
2022/05/28 15:38:09;;;;;;;1.23;1.07;;;15.20;99.90;;;;;;4909948;29;20494;-68
2022/05/28 15:40:37;;;;;;;4.73;1.70;;;15.10;99.90;;;;;;4910910;29;20483;-68
2022/05/28 15:43:06;;;;;;;2.93;1.90;;;15.10;99.90;;;;;;4903183;29;20522;-68
2022/05/28 15:45:37;;;;;;;2.47;1.83;;;15.00;99.90;;;;;;4902980;29;20475;-69
2022/05/28 15:48:05;;;;;;;1.40;1.40;;;15.00;99.90;;;;;;4897977;29;20491;-68
2022/05/28 15:50:33;;;;;;;2.67;1.73;;;15.00;99.90;;;;;;4910285;29;21014;-69
2022/05/28 15:53:00;;;;;;;3.93;1.67;;;15.10;99.90;;;;;;4915415;29;20490;-69
2022/05/28 15:55:28;;;;;;;1.57;1.30;;;15.30;99.90;;;;;;4900843;29;20493;-68
2022/05/28 15:57:58;;;;;;;3.40;1.70;;;15.30;99.90;;;;;;4897580;29;20515;-68
2022/05/28 16:00:26;;;;;;;1.70;1.23;;;15.20;99.90;;;;;;4897358;29;20487;-68
2022/05/28 16:02:55;;;;;;;2.37;2.10;;;15.10;99.90;;;;;;4896730;29;20518;-68
2022/05/28 16:05:22;;;;;;;5.57;1.63;;;15.00;99.90;;;;;;4899639;29;20467;-68
2022/05/28 16:07:57;;;;;;;6.03;1.80;;;14.90;99.90;;;;;;4898284;29;20590;-69
2022/05/28 16:10:25;;;;;;;4.70;2.07;;;14.90;99.90;;;;;;4896474;29;20960;-69
2022/05/28 16:12:52;;;;;;;5.63;1.97;;;14.80;99.90;;;;;;4902125;29;20463;-69
2022/05/28 16:15:19;;;;;;;5.00;2.10;;;14.60;99.90;;;;;;4910205;29;20471;-69
2022/05/28 16:17:46;;;;;;;4.90;1.90;;;14.40;99.90;;;;;;4900236;29;20491;-68
2022/05/28 16:20:14;;;;;;;4.23;1.90;;;14.20;99.90;;;;;;4904218;29;20534;-68
2022/05/28 16:22:41;;;;;;;5.10;2.00;;;14.10;99.90;;;;;;4898829;29;20500;-68
2022/05/28 16:25:09;;;;;;;6.47;3.03;;;13.90;99.90;;;;;;4901476;29;20530;-69
2022/05/28 16:27:36;;;;;;;3.10;2.20;;;13.90;99.90;;;;;;4912439;29;21021;-69
2022/05/28 16:30:05;;;;;;;3.33;1.97;;;13.90;99.90;;;;;;4911854;29;20972;-69
2022/05/28 16:32:32;;;;;;;1.83;1.73;;;13.80;99.90;;;;;;4898003;29;20460;-70
2022/05/28 16:34:59;;;;;;;5.37;1.77;;;13.90;99.90;;;;;;4907019;29;20932;-70
2022/05/28 16:37:27;;;;;;;3.80;2.30;;;13.80;99.90;;;;;;4903940;29;20928;-70
2022/05/28 16:39:53;;;;;;;5.43;1.80;;;13.80;99.90;;;;;;4910100;29;20976;-70
2022/05/28 16:42:21;;;;;;;2.20;2.00;;;13.80;99.90;;;;;;4906116;29;20495;-70
2022/05/28 16:44:49;;;;;;;7.03;3.00;;;13.80;99.90;;;;;;4918626;29;20539;-69
2022/05/28 16:47:16;;;;;;;5.73;2.63;;;13.80;99.90;;;;;;4902822;29;20964;-70
2022/05/28 16:49:43;;;;;;;5.70;2.60;;;13.80;99.90;;;;;;4897367;29;20471;-71
2022/05/28 16:52:10;;;;;;;3.60;2.27;;;13.90;99.90;;;;;;4898523;29;20483;-70
2022/05/28 16:54:38;;;;;;;5.13;2.37;;;13.90;99.90;;;;;;4897679;29;20571;-70
2022/05/28 16:57:06;;;;;;;5.27;1.93;;;13.90;99.90;;;;;;4912606;29;20551;-70
2022/05/28 16:59:33;;;;;;;8.40;1.90;;;13.90;99.90;;;;;;4918857;29;20525;-70
2022/05/28 17:02:01;;;;;;;5.13;1.80;;;13.90;99.90;;;;;;4920932;29;20478;-69
2022/05/28 17:04:28;;;;;;;3.67;1.70;;;14.00;99.90;;;;;;4915110;29;20521;-70
2022/05/28 17:06:59;;;;;;;6.37;1.87;;;14.10;99.90;;;;;;4914427;29;20502;-70
2022/05/28 17:09:25;;;;;;;1.60;1.50;;;14.30;99.90;;;;;;4915011;29;20514;-71
2022/05/28 17:11:55;;;;;;;3.50;1.83;;;14.20;99.90;;;;;;4908245;29;20522;-70
2022/05/28 17:14:23;;;;;;;7.30;2.37;;;14.20;99.90;;;;;;4907373;29;20779;-69
2022/05/28 17:16:50;;;;;;;2.43;1.93;;;14.10;99.90;;;;;;4910412;29;20478;-69